sensor_id;sensor_type;location;lat;lon;timestamp;P1;durP1;ratioP1;P2;durP2;ratioP2
68942;SDS011;60852;52.190;4.422;2022-11-20T00:01:07;23.10;;;21.89;;
68942;SDS011;60852;52.190;4.422;2022-11-20T00:03:35;22.62;;;21.86;;
68942;SDS011;60852;52.190;4.422;2022-11-20T00:06:01;22.69;;;21.84;;
68942;SDS011;60852;52.190;4.422;2022-11-20T00:08:31;23.68;;;22.91;;
68942;SDS011;60852;52.190;4.422;2022-11-20T00:10:56;21.38;;;20.65;;
68942;SDS011;60852;52.190;4.422;2022-11-20T00:13:22;21.89;;;20.89;;
68942;SDS011;60852;52.190;4.422;2022-11-20T00:15:48;22.55;;;21.55;;
68942;SDS011;60852;52.190;4.422;2022-11-20T00:18:13;21.15;;;20.54;;
68942;SDS011;60852;52.190;4.422;2022-11-20T00:20:39;22.63;;;21.69;;
68942;SDS011;60852;52.190;4.422;2022-11-20T00:23:04;22.29;;;21.37;;
68942;SDS011;60852;52.190;4.422;2022-11-20T00:25:33;21.97;;;21.26;;
68942;SDS011;60852;52.190;4.422;2022-11-20T00:27:59;22.65;;;21.45;;
68942;SDS011;60852;52.190;4.422;2022-11-20T00:30:25;21.78;;;20.86;;
68942;SDS011;60852;52.190;4.422;2022-11-20T00:32:50;22.85;;;21.80;;
68942;SDS011;60852;52.190;4.422;2022-11-20T00:35:15;26.52;;;25.49;;
68942;SDS011;60852;52.190;4.422;2022-11-20T00:37:41;24.87;;;24.11;;
68942;SDS011;60852;52.190;4.422;2022-11-20T00:40:06;26.73;;;25.79;;
68942;SDS011;60852;52.190;4.422;2022-11-20T00:42:32;22.27;;;21.49;;
68942;SDS011;60852;52.190;4.422;2022-11-20T00:44:58;21.79;;;20.85;;
68942;SDS011;60852;52.190;4.422;2022-11-20T00:47:24;22.90;;;21.87;;
68942;SDS011;60852;52.190;4.422;2022-11-20T00:49:49;22.11;;;21.29;;
68942;SDS011;60852;52.190;4.422;2022-11-20T00:52:15;22.69;;;21.80;;
68942;SDS011;60852;52.190;4.422;2022-11-20T00:54:40;22.48;;;21.45;;
68942;SDS011;60852;52.190;4.422;2022-11-20T00:57:06;21.59;;;20.79;;
68942;SDS011;60852;52.190;4.422;2022-11-20T00:59:31;21.65;;;20.77;;
68942;SDS011;60852;52.190;4.422;2022-11-20T01:01:56;21.73;;;20.86;;
68942;SDS011;60852;52.190;4.422;2022-11-20T01:04:22;21.21;;;20.58;;
68942;SDS011;60852;52.190;4.422;2022-11-20T01:06:47;21.85;;;21.20;;
68942;SDS011;60852;52.190;4.422;2022-11-20T01:09:13;21.74;;;20.78;;
68942;SDS011;60852;52.190;4.422;2022-11-20T01:11:40;21.05;;;20.40;;
68942;SDS011;60852;52.190;4.422;2022-11-20T01:14:10;21.06;;;20.65;;
68942;SDS011;60852;52.190;4.422;2022-11-20T01:16:40;21.70;;;20.89;;
68942;SDS011;60852;52.190;4.422;2022-11-20T01:24:11;21.64;;;20.85;;
68942;SDS011;60852;52.190;4.422;2022-11-20T01:26:39;21.70;;;20.93;;
68942;SDS011;60852;52.190;4.422;2022-11-20T01:29:09;22.16;;;21.43;;
68942;SDS011;60852;52.190;4.422;2022-11-20T01:31:39;21.76;;;20.98;;
68942;SDS011;60852;52.190;4.422;2022-11-20T01:34:09;21.95;;;21.40;;
68942;SDS011;60852;52.190;4.422;2022-11-20T01:36:37;21.30;;;20.58;;
68942;SDS011;60852;52.190;4.422;2022-11-20T01:39:10;21.26;;;20.63;;
68942;SDS011;60852;52.190;4.422;2022-11-20T01:41:41;21.24;;;20.68;;
68942;SDS011;60852;52.190;4.422;2022-11-20T01:47:14;21.54;;;20.70;;
68942;SDS011;60852;52.190;4.422;2022-11-20T01:49:51;21.52;;;20.76;;
68942;SDS011;60852;52.190;4.422;2022-11-20T01:52:30;21.06;;;20.47;;
68942;SDS011;60852;52.190;4.422;2022-11-20T01:55:10;21.23;;;20.52;;
68942;SDS011;60852;52.190;4.422;2022-11-20T01:57:42;21.75;;;20.99;;
68942;SDS011;60852;52.190;4.422;2022-11-20T02:00:11;21.11;;;20.49;;
68942;SDS011;60852;52.190;4.422;2022-11-20T02:02:39;21.84;;;21.03;;
68942;SDS011;60852;52.190;4.422;2022-11-20T02:05:56;22.19;;;21.44;;
68942;SDS011;60852;52.190;4.422;2022-11-20T02:08:05;24.36;;;23.58;;
68942;SDS011;60852;52.190;4.422;2022-11-20T02:10:31;41.66;;;39.80;;
68942;SDS011;60852;52.190;4.422;2022-11-20T02:12:57;36.62;;;34.69;;
68942;SDS011;60852;52.190;4.422;2022-11-20T02:15:41;25.44;;;24.50;;
68942;SDS011;60852;52.190;4.422;2022-11-20T02:18:07;23.49;;;22.54;;
68942;SDS011;60852;52.190;4.422;2022-11-20T02:20:36;22.88;;;22.02;;
68942;SDS011;60852;52.190;4.422;2022-11-20T02:23:12;22.47;;;21.71;;
68942;SDS011;60852;52.190;4.422;2022-11-20T02:25:46;22.87;;;22.05;;
68942;SDS011;60852;52.190;4.422;2022-11-20T02:28:12;22.62;;;21.88;;
68942;SDS011;60852;52.190;4.422;2022-11-20T02:30:38;22.52;;;21.79;;
68942;SDS011;60852;52.190;4.422;2022-11-20T02:33:03;22.33;;;21.49;;
68942;SDS011;60852;52.190;4.422;2022-11-20T02:37:55;23.37;;;22.61;;
68942;SDS011;60852;52.190;4.422;2022-11-20T02:40:23;22.50;;;21.86;;
68942;SDS011;60852;52.190;4.422;2022-11-20T02:42:52;22.19;;;21.34;;
68942;SDS011;60852;52.190;4.422;2022-11-20T02:45:17;22.68;;;21.68;;
68942;SDS011;60852;52.190;4.422;2022-11-20T02:47:43;22.58;;;21.66;;
68942;SDS011;60852;52.190;4.422;2022-11-20T02:50:09;21.62;;;20.91;;
68942;SDS011;60852;52.190;4.422;2022-11-20T02:52:34;23.03;;;22.17;;
68942;SDS011;60852;52.190;4.422;2022-11-20T02:55:00;22.88;;;21.99;;
68942;SDS011;60852;52.190;4.422;2022-11-20T02:57:25;22.33;;;21.58;;
68942;SDS011;60852;52.190;4.422;2022-11-20T02:59:51;22.24;;;21.76;;
68942;SDS011;60852;52.190;4.422;2022-11-20T03:02:16;23.56;;;23.19;;
68942;SDS011;60852;52.190;4.422;2022-11-20T03:04:42;23.80;;;22.89;;
68942;SDS011;60852;52.190;4.422;2022-11-20T03:07:08;23.89;;;23.34;;
68942;SDS011;60852;52.190;4.422;2022-11-20T03:09:34;24.88;;;24.16;;
68942;SDS011;60852;52.190;4.422;2022-11-20T03:12:00;24.81;;;23.88;;
68942;SDS011;60852;52.190;4.422;2022-11-20T03:14:25;23.53;;;22.91;;
68942;SDS011;60852;52.190;4.422;2022-11-20T03:16:51;23.73;;;23.05;;
68942;SDS011;60852;52.190;4.422;2022-11-20T03:19:16;24.03;;;23.18;;
68942;SDS011;60852;52.190;4.422;2022-11-20T03:21:42;21.89;;;21.14;;
68942;SDS011;60852;52.190;4.422;2022-11-20T03:24:07;22.41;;;21.76;;
68942;SDS011;60852;52.190;4.422;2022-11-20T03:26:32;24.41;;;23.63;;
68942;SDS011;60852;52.190;4.422;2022-11-20T03:28:59;22.12;;;21.28;;
68942;SDS011;60852;52.190;4.422;2022-11-20T03:31:36;22.15;;;21.44;;
68942;SDS011;60852;52.190;4.422;2022-11-20T03:34:05;23.36;;;22.93;;
68942;SDS011;60852;52.190;4.422;2022-11-20T03:36:32;23.49;;;22.84;;
68942;SDS011;60852;52.190;4.422;2022-11-20T03:38:58;23.86;;;23.14;;
68942;SDS011;60852;52.190;4.422;2022-11-20T03:41:24;23.51;;;22.78;;
68942;SDS011;60852;52.190;4.422;2022-11-20T03:43:53;22.33;;;21.72;;
68942;SDS011;60852;52.190;4.422;2022-11-20T03:46:19;21.10;;;20.52;;
68942;SDS011;60852;52.190;4.422;2022-11-20T03:48:45;21.61;;;20.87;;
68942;SDS011;60852;52.190;4.422;2022-11-20T03:53:38;21.93;;;21.17;;
68942;SDS011;60852;52.190;4.422;2022-11-20T03:56:05;21.75;;;20.99;;
68942;SDS011;60852;52.190;4.422;2022-11-20T03:58:32;22.12;;;21.16;;
68942;SDS011;60852;52.190;4.422;2022-11-20T04:01:03;22.43;;;21.40;;
68942;SDS011;60852;52.190;4.422;2022-11-20T04:03:30;22.30;;;21.62;;
68942;SDS011;60852;52.190;4.422;2022-11-20T04:05:55;22.06;;;21.24;;
68942;SDS011;60852;52.190;4.422;2022-11-20T04:08:28;22.94;;;22.05;;
68942;SDS011;60852;52.190;4.422;2022-11-20T04:10:53;22.56;;;21.64;;
68942;SDS011;60852;52.190;4.422;2022-11-20T04:13:19;22.29;;;21.54;;
68942;SDS011;60852;52.190;4.422;2022-11-20T04:15:44;22.66;;;21.86;;
68942;SDS011;60852;52.190;4.422;2022-11-20T04:18:09;22.57;;;21.93;;
68942;SDS011;60852;52.190;4.422;2022-11-20T04:20:35;22.29;;;21.70;;
68942;SDS011;60852;52.190;4.422;2022-11-20T04:23:00;22.99;;;22.23;;
68942;SDS011;60852;52.190;4.422;2022-11-20T04:25:26;22.48;;;21.69;;
68942;SDS011;60852;52.190;4.422;2022-11-20T04:27:51;22.77;;;21.87;;
68942;SDS011;60852;52.190;4.422;2022-11-20T04:30:16;25.73;;;24.64;;
68942;SDS011;60852;52.190;4.422;2022-11-20T04:32:42;24.68;;;23.71;;
68942;SDS011;60852;52.190;4.422;2022-11-20T04:35:07;22.71;;;21.90;;
68942;SDS011;60852;52.190;4.422;2022-11-20T04:37:33;22.50;;;21.51;;
68942;SDS011;60852;52.190;4.422;2022-11-20T04:39:58;22.11;;;21.28;;
68942;SDS011;60852;52.190;4.422;2022-11-20T04:42:24;21.39;;;20.53;;
68942;SDS011;60852;52.190;4.422;2022-11-20T04:44:55;22.86;;;21.97;;
68942;SDS011;60852;52.190;4.422;2022-11-20T04:47:22;22.40;;;21.71;;
68942;SDS011;60852;52.190;4.422;2022-11-20T04:49:47;22.60;;;21.72;;
68942;SDS011;60852;52.190;4.422;2022-11-20T04:52:13;24.60;;;23.87;;
68942;SDS011;60852;52.190;4.422;2022-11-20T04:54:38;23.66;;;22.84;;
68942;SDS011;60852;52.190;4.422;2022-11-20T04:57:04;22.52;;;21.89;;
68942;SDS011;60852;52.190;4.422;2022-11-20T04:59:29;23.04;;;22.36;;
68942;SDS011;60852;52.190;4.422;2022-11-20T05:01:55;23.26;;;22.32;;
68942;SDS011;60852;52.190;4.422;2022-11-20T05:04:20;23.32;;;22.54;;
68942;SDS011;60852;52.190;4.422;2022-11-20T05:06:46;23.12;;;22.33;;
68942;SDS011;60852;52.190;4.422;2022-11-20T05:09:12;23.03;;;22.26;;
68942;SDS011;60852;52.190;4.422;2022-11-20T05:11:37;22.88;;;22.18;;
68942;SDS011;60852;52.190;4.422;2022-11-20T05:14:03;23.24;;;22.32;;
68942;SDS011;60852;52.190;4.422;2022-11-20T05:16:29;22.70;;;21.91;;
68942;SDS011;60852;52.190;4.422;2022-11-20T05:18:54;22.43;;;21.72;;
68942;SDS011;60852;52.190;4.422;2022-11-20T05:21:20;22.94;;;22.04;;
68942;SDS011;60852;52.190;4.422;2022-11-20T05:23:47;23.56;;;22.60;;
68942;SDS011;60852;52.190;4.422;2022-11-20T05:26:16;23.61;;;22.80;;
68942;SDS011;60852;52.190;4.422;2022-11-20T05:28:43;23.75;;;22.91;;
68942;SDS011;60852;52.190;4.422;2022-11-20T05:31:10;24.42;;;23.33;;
68942;SDS011;60852;52.190;4.422;2022-11-20T05:33:42;24.11;;;23.29;;
68942;SDS011;60852;52.190;4.422;2022-11-20T05:36:09;23.89;;;22.97;;
68942;SDS011;60852;52.190;4.422;2022-11-20T05:38:36;23.32;;;22.47;;
68942;SDS011;60852;52.190;4.422;2022-11-20T05:41:09;22.91;;;22.13;;
68942;SDS011;60852;52.190;4.422;2022-11-20T05:43:37;23.59;;;22.50;;
68942;SDS011;60852;52.190;4.422;2022-11-20T05:46:05;23.23;;;22.43;;
68942;SDS011;60852;52.190;4.422;2022-11-20T05:48:33;23.45;;;22.83;;
68942;SDS011;60852;52.190;4.422;2022-11-20T05:51:00;24.53;;;23.41;;
68942;SDS011;60852;52.190;4.422;2022-11-20T05:53:27;23.32;;;22.34;;
68942;SDS011;60852;52.190;4.422;2022-11-20T05:56:00;23.60;;;22.90;;
68942;SDS011;60852;52.190;4.422;2022-11-20T05:58:30;25.47;;;24.40;;
68942;SDS011;60852;52.190;4.422;2022-11-20T06:01:07;25.10;;;24.24;;
68942;SDS011;60852;52.190;4.422;2022-11-20T06:03:39;24.57;;;23.74;;
68942;SDS011;60852;52.190;4.422;2022-11-20T06:06:07;25.93;;;24.37;;
68942;SDS011;60852;52.190;4.422;2022-11-20T06:08:33;25.36;;;24.36;;
68942;SDS011;60852;52.190;4.422;2022-11-20T06:11:02;25.50;;;24.56;;
68942;SDS011;60852;52.190;4.422;2022-11-20T06:13:32;25.30;;;24.43;;
68942;SDS011;60852;52.190;4.422;2022-11-20T06:15:58;25.44;;;24.55;;
68942;SDS011;60852;52.190;4.422;2022-11-20T06:18:25;25.29;;;24.46;;
68942;SDS011;60852;52.190;4.422;2022-11-20T06:21:03;25.01;;;24.22;;
68942;SDS011;60852;52.190;4.422;2022-11-20T06:23:33;24.64;;;23.92;;
68942;SDS011;60852;52.190;4.422;2022-11-20T06:26:06;24.29;;;23.34;;
68942;SDS011;60852;52.190;4.422;2022-11-20T06:28:34;24.16;;;23.36;;
68942;SDS011;60852;52.190;4.422;2022-11-20T06:31:00;25.67;;;24.71;;
68942;SDS011;60852;52.190;4.422;2022-11-20T06:33:26;25.76;;;24.89;;
68942;SDS011;60852;52.190;4.422;2022-11-20T06:35:52;26.06;;;25.29;;
68942;SDS011;60852;52.190;4.422;2022-11-20T06:38:17;25.38;;;24.42;;
68942;SDS011;60852;52.190;4.422;2022-11-20T06:40:43;26.09;;;24.66;;
68942;SDS011;60852;52.190;4.422;2022-11-20T06:43:11;26.00;;;25.02;;
68942;SDS011;60852;52.190;4.422;2022-11-20T06:45:37;25.32;;;24.35;;
68942;SDS011;60852;52.190;4.422;2022-11-20T06:48:02;24.55;;;23.87;;
68942;SDS011;60852;52.190;4.422;2022-11-20T06:50:28;25.23;;;24.48;;
68942;SDS011;60852;52.190;4.422;2022-11-20T06:52:54;25.24;;;24.23;;
68942;SDS011;60852;52.190;4.422;2022-11-20T06:55:19;25.04;;;24.11;;
68942;SDS011;60852;52.190;4.422;2022-11-20T06:57:45;26.75;;;25.67;;
68942;SDS011;60852;52.190;4.422;2022-11-20T07:00:12;26.23;;;25.26;;
68942;SDS011;60852;52.190;4.422;2022-11-20T07:02:38;26.95;;;26.03;;
68942;SDS011;60852;52.190;4.422;2022-11-20T07:05:03;26.31;;;25.26;;
68942;SDS011;60852;52.190;4.422;2022-11-20T07:07:29;27.04;;;25.91;;
68942;SDS011;60852;52.190;4.422;2022-11-20T07:09:54;25.59;;;24.76;;
68942;SDS011;60852;52.190;4.422;2022-11-20T07:12:20;25.49;;;24.63;;
68942;SDS011;60852;52.190;4.422;2022-11-20T07:14:45;25.80;;;24.71;;
68942;SDS011;60852;52.190;4.422;2022-11-20T07:17:11;25.55;;;24.63;;
68942;SDS011;60852;52.190;4.422;2022-11-20T07:19:36;25.53;;;24.59;;
68942;SDS011;60852;52.190;4.422;2022-11-20T07:22:02;26.28;;;25.32;;
68942;SDS011;60852;52.190;4.422;2022-11-20T07:24:27;26.34;;;25.37;;
68942;SDS011;60852;52.190;4.422;2022-11-20T07:26:53;28.25;;;27.25;;
68942;SDS011;60852;52.190;4.422;2022-11-20T07:29:18;27.56;;;26.69;;
68942;SDS011;60852;52.190;4.422;2022-11-20T07:31:43;27.70;;;26.76;;
68942;SDS011;60852;52.190;4.422;2022-11-20T07:34:09;27.41;;;26.58;;
68942;SDS011;60852;52.190;4.422;2022-11-20T07:36:34;26.85;;;25.87;;
68942;SDS011;60852;52.190;4.422;2022-11-20T07:39:00;27.48;;;26.32;;
68942;SDS011;60852;52.190;4.422;2022-11-20T07:41:26;27.23;;;26.35;;
68942;SDS011;60852;52.190;4.422;2022-11-20T07:43:52;28.30;;;27.42;;
68942;SDS011;60852;52.190;4.422;2022-11-20T07:46:18;29.28;;;28.28;;
68942;SDS011;60852;52.190;4.422;2022-11-20T07:48:43;27.80;;;26.82;;
68942;SDS011;60852;52.190;4.422;2022-11-20T07:51:09;26.77;;;26.03;;
68942;SDS011;60852;52.190;4.422;2022-11-20T07:53:34;28.04;;;27.05;;
68942;SDS011;60852;52.190;4.422;2022-11-20T07:56:00;28.85;;;27.96;;
68942;SDS011;60852;52.190;4.422;2022-11-20T07:58:28;29.76;;;28.73;;
68942;SDS011;60852;52.190;4.422;2022-11-20T08:00:55;27.90;;;27.05;;
68942;SDS011;60852;52.190;4.422;2022-11-20T08:03:20;31.94;;;31.01;;
68942;SDS011;60852;52.190;4.422;2022-11-20T08:05:46;34.09;;;33.81;;
68942;SDS011;60852;52.190;4.422;2022-11-20T08:08:11;31.12;;;30.12;;
68942;SDS011;60852;52.190;4.422;2022-11-20T08:10:37;32.42;;;31.38;;
68942;SDS011;60852;52.190;4.422;2022-11-20T08:13:02;34.59;;;33.75;;
68942;SDS011;60852;52.190;4.422;2022-11-20T08:15:49;30.42;;;29.55;;
68942;SDS011;60852;52.190;4.422;2022-11-20T08:18:18;32.63;;;31.49;;
68942;SDS011;60852;52.190;4.422;2022-11-20T08:20:44;30.22;;;29.03;;
68942;SDS011;60852;52.190;4.422;2022-11-20T08:23:09;27.79;;;27.05;;
68942;SDS011;60852;52.190;4.422;2022-11-20T08:25:35;28.71;;;27.86;;
68942;SDS011;60852;52.190;4.422;2022-11-20T08:28:03;29.62;;;28.93;;
68942;SDS011;60852;52.190;4.422;2022-11-20T08:30:31;53.90;;;51.53;;
68942;SDS011;60852;52.190;4.422;2022-11-20T08:33:04;78.88;;;73.80;;
68942;SDS011;60852;52.190;4.422;2022-11-20T08:35:32;69.48;;;65.33;;
68942;SDS011;60852;52.190;4.422;2022-11-20T08:38:00;38.93;;;37.53;;
68942;SDS011;60852;52.190;4.422;2022-11-20T08:40:25;33.58;;;32.37;;
68942;SDS011;60852;52.190;4.422;2022-11-20T08:42:51;32.88;;;31.92;;
68942;SDS011;60852;52.190;4.422;2022-11-20T08:45:17;33.65;;;32.35;;
68942;SDS011;60852;52.190;4.422;2022-11-20T08:47:43;30.92;;;29.86;;
68942;SDS011;60852;52.190;4.422;2022-11-20T08:50:10;31.12;;;29.94;;
68942;SDS011;60852;52.190;4.422;2022-11-20T08:52:37;33.82;;;32.51;;
68942;SDS011;60852;52.190;4.422;2022-11-20T08:55:03;33.84;;;32.67;;
68942;SDS011;60852;52.190;4.422;2022-11-20T08:57:33;32.42;;;31.36;;
68942;SDS011;60852;52.190;4.422;2022-11-20T09:00:00;29.83;;;28.74;;
68942;SDS011;60852;52.190;4.422;2022-11-20T09:02:26;30.05;;;28.83;;
68942;SDS011;60852;52.190;4.422;2022-11-20T09:04:52;29.40;;;28.43;;
68942;SDS011;60852;52.190;4.422;2022-11-20T09:07:18;30.78;;;29.81;;
68942;SDS011;60852;52.190;4.422;2022-11-20T09:09:44;30.47;;;29.55;;
68942;SDS011;60852;52.190;4.422;2022-11-20T09:12:09;30.82;;;29.91;;
68942;SDS011;60852;52.190;4.422;2022-11-20T09:14:35;30.96;;;29.68;;
68942;SDS011;60852;52.190;4.422;2022-11-20T09:17:00;30.71;;;29.48;;
68942;SDS011;60852;52.190;4.422;2022-11-20T09:19:26;31.51;;;30.35;;
68942;SDS011;60852;52.190;4.422;2022-11-20T09:21:51;30.31;;;29.33;;
68942;SDS011;60852;52.190;4.422;2022-11-20T09:24:17;31.36;;;30.32;;
68942;SDS011;60852;52.190;4.422;2022-11-20T09:26:44;30.89;;;29.83;;
68942;SDS011;60852;52.190;4.422;2022-11-20T09:29:09;41.75;;;40.39;;
68942;SDS011;60852;52.190;4.422;2022-11-20T09:31:35;37.70;;;36.92;;
68942;SDS011;60852;52.190;4.422;2022-11-20T09:34:00;45.17;;;43.79;;
68942;SDS011;60852;52.190;4.422;2022-11-20T09:36:26;40.84;;;39.64;;
68942;SDS011;60852;52.190;4.422;2022-11-20T09:38:51;35.71;;;34.58;;
68942;SDS011;60852;52.190;4.422;2022-11-20T09:41:23;35.62;;;34.31;;
68942;SDS011;60852;52.190;4.422;2022-11-20T09:43:58;33.90;;;32.65;;
68942;SDS011;60852;52.190;4.422;2022-11-20T09:46:49;32.99;;;31.89;;
68942;SDS011;60852;52.190;4.422;2022-11-20T09:55:22;33.27;;;31.98;;
68942;SDS011;60852;52.190;4.422;2022-11-20T09:57:48;33.67;;;32.39;;
68942;SDS011;60852;52.190;4.422;2022-11-20T10:00:17;33.32;;;32.33;;
68942;SDS011;60852;52.190;4.422;2022-11-20T10:08:27;33.20;;;32.06;;
68942;SDS011;60852;52.190;4.422;2022-11-20T10:11:21;34.52;;;33.24;;
68942;SDS011;60852;52.190;4.422;2022-11-20T10:14:34;35.11;;;33.83;;
68942;SDS011;60852;52.190;4.422;2022-11-20T10:20:28;37.31;;;35.70;;
68942;SDS011;60852;52.190;4.422;2022-11-20T10:23:29;39.95;;;38.53;;
68942;SDS011;60852;52.190;4.422;2022-11-20T10:26:03;39.05;;;37.58;;
68942;SDS011;60852;52.190;4.422;2022-11-20T10:28:53;38.88;;;37.22;;
68942;SDS011;60852;52.190;4.422;2022-11-20T10:31:39;37.94;;;36.40;;
68942;SDS011;60852;52.190;4.422;2022-11-20T10:36:59;36.66;;;35.37;;
68942;SDS011;60852;52.190;4.422;2022-11-20T10:39:34;35.71;;;34.35;;
68942;SDS011;60852;52.190;4.422;2022-11-20T10:42:23;35.47;;;34.28;;
68942;SDS011;60852;52.190;4.422;2022-11-20T10:45:10;36.50;;;35.26;;
68942;SDS011;60852;52.190;4.422;2022-11-20T10:47:56;36.37;;;35.05;;
68942;SDS011;60852;52.190;4.422;2022-11-20T10:50:33;36.10;;;34.83;;
68942;SDS011;60852;52.190;4.422;2022-11-20T10:53:08;36.36;;;35.09;;
68942;SDS011;60852;52.190;4.422;2022-11-20T10:55:45;36.00;;;34.64;;
68942;SDS011;60852;52.190;4.422;2022-11-20T11:01:18;35.79;;;34.39;;
68942;SDS011;60852;52.190;4.422;2022-11-20T11:03:48;35.39;;;34.01;;
68942;SDS011;60852;52.190;4.422;2022-11-20T11:06:19;35.11;;;33.75;;
68942;SDS011;60852;52.190;4.422;2022-11-20T11:08:55;36.45;;;34.57;;
68942;SDS011;60852;52.190;4.422;2022-11-20T11:11:29;36.10;;;34.74;;
68942;SDS011;60852;52.190;4.422;2022-11-20T11:14:08;37.59;;;36.21;;
68942;SDS011;60852;52.190;4.422;2022-11-20T11:16:51;38.12;;;36.69;;
68942;SDS011;60852;52.190;4.422;2022-11-20T11:19:18;35.98;;;34.40;;
68942;SDS011;60852;52.190;4.422;2022-11-20T11:21:47;35.12;;;33.82;;
68942;SDS011;60852;52.190;4.422;2022-11-20T11:24:23;34.10;;;33.07;;
68942;SDS011;60852;52.190;4.422;2022-11-20T11:26:53;33.61;;;32.45;;
68942;SDS011;60852;52.190;4.422;2022-11-20T11:29:22;34.64;;;32.96;;
68942;SDS011;60852;52.190;4.422;2022-11-20T11:31:49;35.14;;;34.00;;
68942;SDS011;60852;52.190;4.422;2022-11-20T11:34:15;35.14;;;34.00;;
68942;SDS011;60852;52.190;4.422;2022-11-20T11:36:47;33.11;;;31.82;;
68942;SDS011;60852;52.190;4.422;2022-11-20T11:39:21;32.65;;;31.72;;
68942;SDS011;60852;52.190;4.422;2022-11-20T11:41:46;33.33;;;32.25;;
68942;SDS011;60852;52.190;4.422;2022-11-20T11:44:20;32.95;;;32.10;;
68942;SDS011;60852;52.190;4.422;2022-11-20T11:47:25;36.03;;;34.77;;
68942;SDS011;60852;52.190;4.422;2022-11-20T11:58:46;35.10;;;34.09;;
68942;SDS011;60852;52.190;4.422;2022-11-20T12:06:30;50.46;;;48.66;;
68942;SDS011;60852;52.190;4.422;2022-11-20T12:09:03;46.50;;;44.68;;
68942;SDS011;60852;52.190;4.422;2022-11-20T12:11:33;42.86;;;41.67;;
68942;SDS011;60852;52.190;4.422;2022-11-20T12:14:21;37.42;;;36.71;;
68942;SDS011;60852;52.190;4.422;2022-11-20T12:16:55;37.11;;;35.75;;
68942;SDS011;60852;52.190;4.422;2022-11-20T12:19:22;39.46;;;37.83;;
68942;SDS011;60852;52.190;4.422;2022-11-20T12:24:21;39.35;;;37.83;;
68942;SDS011;60852;52.190;4.422;2022-11-20T12:29:54;38.12;;;36.68;;
68942;SDS011;60852;52.190;4.422;2022-11-20T12:41:19;41.82;;;40.36;;
68942;SDS011;60852;52.190;4.422;2022-11-20T12:44:36;46.48;;;44.68;;
68942;SDS011;60852;52.190;4.422;2022-11-20T12:53:02;38.84;;;37.43;;
68942;SDS011;60852;52.190;4.422;2022-11-20T12:55:54;39.66;;;38.35;;
68942;SDS011;60852;52.190;4.422;2022-11-20T12:58:48;40.09;;;38.79;;
68942;SDS011;60852;52.190;4.422;2022-11-20T13:01:25;40.81;;;39.43;;
68942;SDS011;60852;52.190;4.422;2022-11-20T13:06:46;40.37;;;39.10;;
68942;SDS011;60852;52.190;4.422;2022-11-20T13:09:13;41.79;;;40.02;;
68942;SDS011;60852;52.190;4.422;2022-11-20T13:12:01;43.58;;;41.96;;
68942;SDS011;60852;52.190;4.422;2022-11-20T13:15:11;43.62;;;42.14;;
68942;SDS011;60852;52.190;4.422;2022-11-20T13:17:55;44.29;;;42.82;;
68942;SDS011;60852;52.190;4.422;2022-11-20T13:20:25;43.59;;;42.07;;
68942;SDS011;60852;52.190;4.422;2022-11-20T13:22:52;44.01;;;42.21;;
68942;SDS011;60852;52.190;4.422;2022-11-20T13:25:28;44.55;;;43.03;;
68942;SDS011;60852;52.190;4.422;2022-11-20T13:27:57;42.15;;;40.71;;
68942;SDS011;60852;52.190;4.422;2022-11-20T13:30:26;42.86;;;41.61;;
68942;SDS011;60852;52.190;4.422;2022-11-20T13:32:54;42.53;;;41.11;;
68942;SDS011;60852;52.190;4.422;2022-11-20T13:35:31;44.83;;;42.93;;
68942;SDS011;60852;52.190;4.422;2022-11-20T13:38:12;43.91;;;42.24;;
68942;SDS011;60852;52.190;4.422;2022-11-20T13:43:42;43.51;;;41.83;;
68942;SDS011;60852;52.190;4.422;2022-11-20T13:46:09;43.96;;;42.45;;
68942;SDS011;60852;52.190;4.422;2022-11-20T13:56:48;53.33;;;50.92;;
68942;SDS011;60852;52.190;4.422;2022-11-20T13:59:40;49.68;;;48.11;;
68942;SDS011;60852;52.190;4.422;2022-11-20T14:02:22;44.67;;;42.65;;
68942;SDS011;60852;52.190;4.422;2022-11-20T14:04:53;46.31;;;44.93;;
68942;SDS011;60852;52.190;4.422;2022-11-20T14:07:22;58.96;;;56.85;;
68942;SDS011;60852;52.190;4.422;2022-11-20T14:09:57;52.19;;;50.81;;
68942;SDS011;60852;52.190;4.422;2022-11-20T14:12:27;55.73;;;54.12;;
68942;SDS011;60852;52.190;4.422;2022-11-20T14:14:54;67.89;;;66.22;;
68942;SDS011;60852;52.190;4.422;2022-11-20T14:17:21;56.37;;;54.89;;
68942;SDS011;60852;52.190;4.422;2022-11-20T14:19:53;61.13;;;59.49;;
68942;SDS011;60852;52.190;4.422;2022-11-20T14:22:24;62.87;;;59.70;;
68942;SDS011;60852;52.190;4.422;2022-11-20T14:25:02;56.15;;;54.65;;
68942;SDS011;60852;52.190;4.422;2022-11-20T14:27:28;58.27;;;55.68;;
68942;SDS011;60852;52.190;4.422;2022-11-20T14:29:54;62.83;;;61.06;;
68942;SDS011;60852;52.190;4.422;2022-11-20T14:32:20;59.58;;;57.76;;
68942;SDS011;60852;52.190;4.422;2022-11-20T14:34:52;59.24;;;56.57;;
68942;SDS011;60852;52.190;4.422;2022-11-20T14:37:21;56.97;;;54.79;;
68942;SDS011;60852;52.190;4.422;2022-11-20T14:39:53;56.61;;;54.77;;
68942;SDS011;60852;52.190;4.422;2022-11-20T14:42:21;62.07;;;58.29;;
68942;SDS011;60852;52.190;4.422;2022-11-20T14:44:49;71.60;;;69.77;;
68942;SDS011;60852;52.190;4.422;2022-11-20T14:47:35;64.22;;;62.17;;
68942;SDS011;60852;52.190;4.422;2022-11-20T14:50:01;65.81;;;63.35;;
68942;SDS011;60852;52.190;4.422;2022-11-20T14:52:27;71.86;;;69.01;;
68942;SDS011;60852;52.190;4.422;2022-11-20T14:54:56;54.16;;;52.03;;
68942;SDS011;60852;52.190;4.422;2022-11-20T15:00:07;52.26;;;50.38;;
68942;SDS011;60852;52.190;4.422;2022-11-20T15:02:40;51.48;;;48.87;;
68942;SDS011;60852;52.190;4.422;2022-11-20T15:05:07;56.85;;;54.79;;
68942;SDS011;60852;52.190;4.422;2022-11-20T15:07:34;49.69;;;47.72;;
68942;SDS011;60852;52.190;4.422;2022-11-20T15:10:06;45.62;;;44.15;;
68942;SDS011;60852;52.190;4.422;2022-11-20T15:12:33;49.63;;;47.42;;
68942;SDS011;60852;52.190;4.422;2022-11-20T15:15:02;46.99;;;45.74;;
68942;SDS011;60852;52.190;4.422;2022-11-20T15:17:30;47.16;;;45.78;;
68942;SDS011;60852;52.190;4.422;2022-11-20T15:19:57;47.73;;;46.01;;
68942;SDS011;60852;52.190;4.422;2022-11-20T15:22:23;45.99;;;43.69;;
68942;SDS011;60852;52.190;4.422;2022-11-20T15:24:49;39.78;;;38.68;;
68942;SDS011;60852;52.190;4.422;2022-11-20T15:27:14;41.04;;;39.71;;
68942;SDS011;60852;52.190;4.422;2022-11-20T15:29:40;40.52;;;39.50;;
68942;SDS011;60852;52.190;4.422;2022-11-20T15:32:07;40.11;;;38.87;;
68942;SDS011;60852;52.190;4.422;2022-11-20T15:34:33;39.32;;;38.34;;
68942;SDS011;60852;52.190;4.422;2022-11-20T15:36:58;39.95;;;39.08;;
68942;SDS011;60852;52.190;4.422;2022-11-20T15:39:24;39.63;;;38.76;;
68942;SDS011;60852;52.190;4.422;2022-11-20T15:41:49;43.06;;;41.87;;
68942;SDS011;60852;52.190;4.422;2022-11-20T15:44:15;42.72;;;41.47;;
68942;SDS011;60852;52.190;4.422;2022-11-20T15:46:40;42.63;;;41.66;;
68942;SDS011;60852;52.190;4.422;2022-11-20T15:49:13;45.84;;;44.87;;
68942;SDS011;60852;52.190;4.422;2022-11-20T15:51:43;45.61;;;44.37;;
68942;SDS011;60852;52.190;4.422;2022-11-20T15:54:13;48.34;;;47.17;;
68942;SDS011;60852;52.190;4.422;2022-11-20T15:56:42;49.92;;;48.41;;
68942;SDS011;60852;52.190;4.422;2022-11-20T15:59:08;44.08;;;42.92;;